Terminal Aerodrome Forecast
Issued by NWS

Home | Current Version | Previous Version | Text Only | Print | Product List | Glossary On
Versions: 1 2 3 4 5 6 7 8
000
FTUS46 KMTR 281100
TAFSNS
TAF
KSNS 281120Z 2812/2912 VRB03KT P6SM BKN250
     FM281500 11008KT P6SM SCT250
     FM282100 29008KT P6SM FEW250
     FM290400 VRB03KT P6SM FEW250=

USA.gov is the U.S. government's official web portal to all federal, state and local government web resources and services.